createdAt,value
2019-03-24T00:00:58.407Z,13.00
2019-03-24T00:03:30.018Z,12.33
2019-03-24T00:06:01.627Z,13.37
2019-03-24T00:08:33.315Z,12.30
2019-03-24T00:11:04.937Z,11.90
2019-03-24T00:13:36.745Z,13.90
2019-03-24T00:16:08.472Z,14.20
2019-03-24T00:18:40.511Z,14.53
2019-03-24T00:21:12.107Z,13.60
2019-03-24T00:23:43.756Z,13.43
2019-03-24T00:26:15.477Z,13.60
2019-03-24T00:28:47.079Z,14.80
2019-03-24T00:31:18.765Z,13.93
2019-03-24T00:33:50.395Z,13.43
2019-03-24T00:36:22.137Z,13.40
2019-03-24T00:38:53.770Z,14.33
2019-03-24T00:41:25.457Z,13.90
2019-03-24T00:43:57.041Z,12.73
2019-03-24T00:46:28.767Z,13.53
2019-03-24T00:49:00.427Z,13.30
2019-03-24T00:51:32.119Z,13.70
2019-03-24T00:54:03.707Z,12.90
2019-03-24T00:56:35.580Z,12.90
2019-03-24T00:59:07.219Z,13.90
2019-03-24T01:01:38.803Z,12.77
2019-03-24T01:04:10.466Z,12.50
2019-03-24T01:06:42.489Z,13.83
2019-03-24T01:09:14.201Z,12.80
2019-03-24T01:11:45.809Z,13.20
2019-03-24T01:14:17.427Z,14.40
2019-03-24T01:16:49.009Z,14.33
2019-03-24T01:19:20.679Z,15.10
2019-03-24T01:21:52.280Z,14.30
2019-03-24T01:24:24.146Z,14.57
2019-03-24T01:26:55.723Z,15.00
2019-03-24T01:29:27.377Z,14.10
2019-03-24T01:31:59.096Z,15.13
2019-03-24T01:34:30.779Z,14.50
2019-03-24T01:37:03.697Z,14.83
2019-03-24T01:39:46.837Z,15.40
2019-03-24T01:42:18.463Z,14.60
2019-03-24T01:44:50.078Z,14.07
2019-03-24T01:47:32.963Z,14.67
2019-03-24T01:50:04.790Z,14.70
2019-03-24T01:52:36.509Z,14.97
2019-03-24T01:55:09.577Z,14.63
2019-03-24T01:57:41.754Z,15.17
2019-03-24T02:00:13.745Z,15.40
2019-03-24T02:02:45.349Z,14.77
2019-03-24T02:05:17.041Z,15.57
2019-03-24T02:07:48.705Z,15.40
2019-03-24T02:10:20.577Z,14.47
2019-03-24T02:12:52.151Z,15.53
2019-03-24T02:15:23.805Z,14.60
2019-03-24T02:17:55.387Z,15.80
2019-03-24T02:20:27.376Z,15.27
2019-03-24T02:22:59.007Z,15.07
2019-03-24T02:25:30.831Z,14.83
2019-03-24T02:28:02.460Z,14.80
2019-03-24T02:30:34.116Z,14.90
2019-03-24T02:33:05.775Z,14.40
2019-03-24T02:35:37.388Z,15.27
2019-03-24T02:38:09.001Z,14.67
2019-03-24T02:40:40.664Z,14.33
2019-03-24T02:43:12.295Z,14.43
2019-03-24T02:45:43.855Z,15.10
2019-03-24T02:48:15.487Z,14.90
2019-03-24T02:50:47.153Z,15.83
2019-03-24T02:53:18.913Z,15.50
2019-03-24T02:55:50.524Z,15.93
2019-03-24T02:58:22.351Z,14.03
2019-03-24T03:00:54.103Z,15.20
2019-03-24T03:03:25.881Z,15.33
2019-03-24T03:05:57.547Z,14.63
2019-03-24T03:08:29.403Z,16.00
2019-03-24T03:11:01.997Z,15.17
2019-03-24T03:13:33.660Z,15.60
2019-03-24T03:16:05.298Z,14.50
2019-03-24T03:18:37.988Z,14.60
2019-03-24T03:21:09.647Z,14.60
2019-03-24T03:23:41.230Z,15.07
2019-03-24T03:26:12.946Z,15.43
2019-03-24T03:28:44.686Z,15.80
2019-03-24T03:31:16.324Z,15.73
2019-03-24T03:33:47.957Z,16.20
2019-03-24T03:36:19.584Z,16.20
2019-03-24T03:38:51.230Z,14.43
2019-03-24T03:41:22.876Z,15.30
2019-03-24T03:43:54.479Z,15.50
2019-03-24T03:46:26.202Z,16.40
2019-03-24T03:48:57.808Z,17.47
2019-03-24T03:51:29.552Z,16.20
2019-03-24T03:54:01.258Z,16.23
2019-03-24T03:56:32.914Z,17.07
2019-03-24T03:59:05.078Z,16.27
2019-03-24T04:01:36.681Z,17.20
2019-03-24T04:04:08.328Z,15.70
2019-03-24T04:06:39.997Z,17.07
2019-03-24T04:09:11.839Z,17.40
2019-03-24T04:11:43.594Z,15.70
2019-03-24T04:14:15.250Z,16.63
2019-03-24T04:16:48.038Z,16.37
2019-03-24T04:19:19.626Z,16.13
2019-03-24T04:21:51.349Z,16.60
2019-03-24T04:24:23.044Z,16.33
2019-03-24T04:26:54.717Z,16.23
2019-03-24T04:29:26.375Z,16.50
2019-03-24T04:31:58.017Z,16.77
2019-03-24T04:34:29.654Z,17.40
2019-03-24T04:37:01.303Z,15.90
2019-03-24T04:39:32.885Z,16.67
2019-03-24T04:42:04.582Z,17.70
2019-03-24T04:44:36.253Z,16.70
2019-03-24T04:47:16.304Z,18.20
2019-03-24T04:49:41.297Z,17.67
2019-03-24T04:52:13.117Z,17.87
2019-03-24T04:54:44.740Z,19.10
2019-03-24T04:57:16.445Z,17.80
2019-03-24T04:59:48.323Z,17.67
2019-03-24T05:02:19.933Z,17.83
2019-03-24T05:04:51.530Z,18.60
2019-03-24T05:07:23.203Z,18.60
2019-03-24T05:09:55.180Z,17.90
2019-03-24T05:12:27.101Z,17.63
2019-03-24T05:14:58.693Z,17.63
2019-03-24T05:17:30.380Z,17.30
2019-03-24T05:20:01.995Z,18.00
2019-03-24T05:22:33.607Z,17.83
2019-03-24T05:25:05.665Z,16.80
2019-03-24T05:27:37.661Z,17.60
2019-03-24T05:30:09.651Z,17.10
2019-03-24T05:32:41.323Z,18.80
2019-03-24T05:35:12.957Z,18.17
2019-03-24T05:37:44.603Z,17.10
2019-03-24T05:40:16.277Z,17.70
2019-03-24T05:42:47.883Z,17.03
2019-03-24T05:45:19.535Z,17.63
2019-03-24T05:47:51.242Z,16.93
2019-03-24T05:50:34.216Z,18.40
2019-03-24T05:53:05.937Z,20.10
2019-03-24T05:55:37.804Z,18.57
2019-03-24T05:58:09.531Z,17.57
2019-03-24T06:00:41.294Z,18.77
2019-03-24T06:03:13.245Z,18.47
2019-03-24T06:05:44.892Z,19.10
2019-03-24T06:08:16.661Z,19.30
2019-03-24T06:10:48.265Z,19.33
2019-03-24T06:13:20.016Z,18.90
2019-03-24T06:15:51.723Z,19.00
2019-03-24T06:18:23.391Z,18.80
2019-03-24T06:20:54.973Z,19.73
2019-03-24T06:23:26.605Z,19.43
2019-03-24T06:25:58.211Z,19.17
2019-03-24T06:28:29.939Z,19.57
2019-03-24T06:31:01.812Z,19.67
2019-03-24T06:33:33.687Z,20.63
2019-03-24T06:36:05.335Z,20.13
2019-03-24T06:38:55.866Z,20.20
2019-03-24T06:41:38.891Z,19.93
2019-03-24T06:44:10.685Z,19.93
2019-03-24T06:46:42.465Z,20.50
2019-03-24T06:49:14.465Z,20.80
2019-03-24T06:51:46.154Z,22.17
2019-03-24T06:54:17.881Z,20.50
2019-03-24T06:56:49.529Z,19.63
2019-03-24T06:59:21.397Z,20.50
2019-03-24T07:01:53.313Z,18.93
2019-03-24T07:04:25.109Z,21.40
2019-03-24T07:06:56.773Z,21.10
2019-03-24T07:09:28.563Z,20.07
2019-03-24T07:12:00.741Z,20.43
2019-03-24T07:14:33.299Z,21.67
2019-03-24T07:17:04.955Z,21.50
2019-03-24T07:19:36.583Z,21.27
2019-03-24T07:22:08.367Z,21.93
2019-03-24T07:24:40.073Z,22.10
2019-03-24T07:27:12.031Z,23.03
2019-03-24T07:29:43.856Z,22.20
2019-03-24T07:32:15.509Z,21.40
2019-03-24T07:34:47.147Z,21.43
2019-03-24T07:37:18.765Z,21.60
2019-03-24T07:39:50.365Z,21.93
2019-03-24T07:42:22.070Z,23.97
2019-03-24T07:44:53.863Z,21.30
2019-03-24T07:47:25.545Z,21.53
2019-03-24T07:49:57.294Z,22.30
2019-03-24T07:52:29.181Z,21.90
2019-03-24T07:55:01.478Z,22.23
2019-03-24T07:57:33.437Z,21.00
2019-03-24T08:00:06.251Z,21.90
2019-03-24T08:02:38.218Z,21.17
2019-03-24T08:08:43.985Z,22.57
2019-03-24T08:11:08.953Z,21.33
2019-03-24T08:13:59.426Z,20.70
2019-03-24T08:16:35.089Z,22.33
2019-03-24T08:19:07.327Z,20.70
2019-03-24T08:21:39.181Z,29.00
2019-03-24T08:24:11.333Z,30.97
2019-03-24T08:26:44.979Z,23.97
2019-03-24T08:29:16.935Z,22.80
2019-03-24T08:31:48.809Z,23.47
2019-03-24T08:34:21.679Z,22.70
2019-03-24T08:36:53.556Z,22.97
2019-03-24T08:39:25.244Z,22.70
2019-03-24T08:41:56.845Z,22.77
2019-03-24T08:44:29.039Z,22.73
2019-03-24T08:47:06.805Z,74.53
2019-03-24T08:49:39.987Z,36.53
2019-03-24T08:52:11.989Z,70.60
2019-03-24T08:58:13.577Z,23.43
2019-03-24T09:00:45.727Z,22.50
2019-03-24T09:06:42.066Z,22.90
2019-03-24T09:15:39.537Z,24.60
2019-03-24T09:18:11.848Z,25.20
2019-03-24T09:20:43.711Z,22.60
2019-03-24T09:27:09.378Z,24.40
2019-03-24T09:29:56.090Z,23.77
2019-03-24T09:32:28.510Z,23.80
2019-03-24T09:35:00.525Z,23.63
2019-03-24T09:37:43.882Z,24.97
2019-03-24T09:40:26.701Z,23.83
2019-03-24T09:43:00.465Z,23.43
2019-03-24T09:45:37.631Z,25.30
2019-03-24T09:48:09.471Z,25.43
2019-03-24T09:50:42.157Z,25.33
2019-03-24T09:53:13.868Z,25.30
2019-03-24T09:55:45.701Z,24.70
2019-03-24T09:58:17.613Z,25.20
2019-03-24T10:00:49.539Z,23.40
2019-03-24T10:03:23.363Z,25.43
2019-03-24T10:05:55.851Z,24.47
2019-03-24T10:08:27.977Z,23.50
2019-03-24T10:11:00.161Z,24.77
2019-03-24T10:13:34.395Z,24.40
2019-03-24T10:22:54.189Z,25.00
2019-03-24T10:25:27.085Z,24.90
2019-03-24T10:27:58.867Z,25.67
2019-03-24T10:30:33.131Z,25.67
2019-03-24T10:33:15.971Z,24.90
2019-03-24T10:35:49.033Z,26.10
2019-03-24T10:38:20.701Z,25.10
2019-03-24T10:40:52.421Z,26.00
2019-03-24T10:43:24.198Z,26.20
2019-03-24T10:45:55.881Z,24.90
2019-03-24T10:48:33.647Z,24.70
2019-03-24T10:51:01.311Z,25.63
2019-03-24T10:53:33.097Z,25.03
2019-03-24T10:56:05.807Z,24.77
2019-03-24T10:58:37.457Z,25.70
2019-03-24T11:01:09.407Z,25.60
2019-03-24T11:03:52.007Z,26.50
2019-03-24T11:06:23.805Z,27.27
2019-03-24T11:08:55.875Z,25.37
2019-03-24T11:11:27.636Z,27.40
2019-03-24T11:13:59.425Z,24.73
2019-03-24T11:16:31.399Z,25.27
2019-03-24T11:19:03.294Z,26.03
2019-03-24T11:21:35.273Z,24.73
2019-03-24T11:24:07.045Z,24.20
2019-03-24T11:26:38.721Z,25.37
2019-03-24T11:29:10.375Z,26.03
2019-03-24T11:31:42.272Z,25.40
2019-03-24T11:34:13.919Z,26.00
2019-03-24T11:36:45.650Z,26.17
2019-03-24T11:39:17.465Z,25.90
2019-03-24T11:41:49.207Z,25.93
2019-03-24T11:44:21.347Z,24.53
2019-03-24T11:46:53.327Z,24.63
2019-03-24T11:49:25.235Z,25.50
2019-03-24T11:51:57.117Z,24.80
2019-03-24T11:54:28.611Z,25.33
2019-03-24T11:57:00.302Z,24.43
2019-03-24T11:59:31.911Z,25.30
2019-03-24T12:02:03.723Z,22.47
2019-03-24T12:04:35.555Z,23.10
2019-03-24T12:07:07.237Z,23.40
2019-03-24T12:09:39.123Z,24.37
2019-03-24T12:12:10.848Z,22.53
2019-03-24T12:14:42.842Z,22.70
2019-03-24T12:17:14.905Z,22.63
2019-03-24T12:19:56.462Z,24.17
2019-03-24T12:22:20.103Z,24.80
2019-03-24T12:24:51.751Z,24.40
2019-03-24T12:27:23.409Z,25.47
2019-03-24T12:29:55.503Z,23.30
2019-03-24T12:32:27.365Z,21.77
2019-03-24T12:34:59.370Z,22.40
2019-03-24T12:37:30.973Z,22.67
2019-03-24T12:40:02.660Z,22.27
2019-03-24T12:42:34.306Z,22.80
2019-03-24T12:45:07.695Z,21.40
2019-03-24T12:47:39.633Z,25.87
2019-03-24T12:50:11.879Z,23.80
2019-03-24T12:52:43.709Z,24.77
2019-03-24T12:55:16.051Z,25.50
2019-03-24T12:57:47.827Z,26.30
2019-03-24T13:00:33.495Z,27.43
2019-03-24T13:03:06.007Z,25.13
2019-03-24T13:05:37.866Z,25.90
2019-03-24T13:08:17.205Z,27.27
2019-03-24T13:10:49.777Z,25.80
2019-03-24T13:13:21.569Z,23.40
2019-03-24T13:15:53.203Z,23.80
2019-03-24T13:18:25.125Z,27.10
2019-03-24T13:20:56.908Z,24.63
2019-03-24T13:23:28.526Z,26.03
2019-03-24T13:26:00.503Z,24.17
2019-03-24T13:28:32.104Z,23.67
2019-03-24T13:31:04.041Z,23.63
2019-03-24T13:33:35.657Z,22.53
2019-03-24T13:36:12.868Z,22.40
2019-03-24T13:38:44.541Z,21.95
2019-03-24T13:41:16.231Z,23.47
2019-03-24T13:43:47.931Z,22.60
2019-03-24T13:46:19.581Z,23.40
2019-03-24T13:48:51.226Z,24.13
2019-03-24T13:51:22.901Z,21.67
2019-03-24T13:53:54.758Z,24.23
2019-03-24T13:56:26.415Z,23.37
2019-03-24T13:58:58.033Z,22.23
2019-03-24T14:01:29.685Z,24.47
2019-03-24T14:04:01.601Z,24.10
2019-03-24T14:06:33.973Z,22.97
2019-03-24T14:09:08.314Z,26.03
2019-03-24T14:11:40.097Z,24.90
2019-03-24T14:14:11.969Z,23.97
2019-03-24T14:16:43.599Z,25.13
2019-03-24T14:19:15.207Z,25.10
2019-03-24T14:21:46.938Z,25.50
2019-03-24T14:24:18.800Z,24.23
2019-03-24T14:26:50.533Z,26.80
2019-03-24T14:29:22.167Z,25.20
2019-03-24T14:31:53.781Z,26.47
2019-03-24T14:34:25.716Z,23.63
2019-03-24T14:36:57.404Z,25.93
2019-03-24T14:39:29.061Z,25.10
2019-03-24T14:42:00.634Z,26.80
2019-03-24T14:44:32.291Z,27.37
2019-03-24T14:47:03.924Z,25.80
2019-03-24T14:49:35.505Z,27.30
2019-03-24T14:52:07.161Z,27.37
2019-03-24T14:54:38.754Z,25.70
2019-03-24T14:57:10.367Z,26.27
2019-03-24T14:59:42.211Z,28.83
2019-03-24T15:02:13.886Z,27.13
2019-03-24T15:04:45.496Z,26.93
2019-03-24T15:07:17.147Z,27.13
2019-03-24T15:09:48.775Z,27.70
2019-03-24T15:12:20.776Z,28.00
2019-03-24T15:14:52.444Z,26.20
2019-03-24T15:17:24.345Z,26.27
2019-03-24T15:19:56.132Z,25.57
2019-03-24T15:22:38.673Z,27.87
2019-03-24T15:25:10.299Z,27.37
2019-03-24T15:27:42.657Z,26.90
2019-03-24T15:30:15.403Z,25.83
2019-03-24T15:32:47.201Z,24.60
2019-03-24T15:35:30.446Z,24.60
2019-03-24T15:38:08.377Z,25.13
2019-03-24T15:40:35.839Z,24.00
2019-03-24T15:43:07.608Z,25.23
2019-03-24T15:45:40.477Z,23.30
2019-03-24T15:48:12.147Z,23.87
2019-03-24T15:50:43.827Z,21.90
2019-03-24T15:53:15.621Z,23.63
2019-03-24T15:55:47.451Z,22.33
2019-03-24T15:58:19.489Z,21.33
2019-03-24T16:00:51.153Z,22.63
2019-03-24T16:03:23.197Z,21.50
2019-03-24T16:05:56.458Z,21.03
2019-03-24T16:08:28.487Z,21.80
2019-03-24T16:11:00.299Z,19.43
2019-03-24T16:13:32.179Z,20.77
2019-03-24T16:16:04.467Z,19.80
2019-03-24T16:18:36.195Z,18.60
2019-03-24T16:21:07.787Z,18.80
2019-03-24T16:23:39.559Z,19.30
2019-03-24T16:26:11.547Z,18.70
2019-03-24T16:28:43.213Z,17.63
2019-03-24T16:31:15.220Z,18.70
2019-03-24T16:33:47.193Z,19.27
2019-03-24T16:36:19.179Z,20.07
2019-03-24T16:38:51.005Z,18.73
2019-03-24T16:41:22.911Z,18.20
2019-03-24T16:43:54.663Z,19.63
2019-03-24T16:46:26.635Z,17.50
2019-03-24T16:48:58.289Z,18.10
2019-03-24T16:51:38.177Z,16.70
2019-03-24T16:54:04.067Z,16.40
2019-03-24T16:56:54.630Z,15.77
2019-03-24T16:59:26.447Z,16.47
2019-03-24T17:01:58.126Z,15.47
2019-03-24T17:04:29.798Z,15.30
2019-03-24T17:07:01.612Z,16.00
2019-03-24T17:09:33.541Z,15.60
2019-03-24T17:12:05.443Z,16.70
2019-03-24T17:14:37.567Z,16.27
2019-03-24T17:17:11.457Z,16.33
2019-03-24T17:19:43.345Z,15.10
2019-03-24T17:22:15.162Z,16.30
2019-03-24T17:24:47.156Z,16.40
2019-03-24T17:27:18.841Z,17.37
2019-03-24T17:29:50.559Z,16.73
2019-03-24T17:32:22.239Z,16.20
2019-03-24T17:34:54.801Z,16.83
2019-03-24T17:37:35.001Z,18.40
2019-03-24T17:40:08.660Z,17.63
2019-03-24T17:42:40.327Z,17.80
2019-03-24T17:45:13.363Z,16.07
2019-03-24T17:47:44.989Z,16.90
2019-03-24T17:50:19.831Z,15.97
2019-03-24T17:53:10.314Z,17.20
2019-03-24T17:55:42.274Z,15.57
2019-03-24T17:58:15.682Z,16.60
2019-03-24T18:00:49.684Z,15.10
2019-03-24T18:03:21.375Z,15.83
2019-03-24T18:05:53.112Z,15.43
2019-03-24T18:08:24.903Z,15.63
2019-03-24T18:10:56.545Z,15.40
2019-03-24T18:13:28.183Z,15.60
2019-03-24T18:16:11.313Z,15.57
2019-03-24T18:18:43.017Z,15.27
2019-03-24T18:21:16.597Z,15.13
2019-03-24T18:23:48.607Z,14.63
2019-03-24T18:26:20.635Z,17.77
2019-03-24T18:28:52.269Z,15.10
2019-03-24T18:31:23.969Z,15.87
2019-03-24T18:33:55.717Z,15.50
2019-03-24T18:36:27.411Z,15.87
2019-03-24T18:38:59.111Z,16.17
2019-03-24T18:41:30.913Z,17.43
2019-03-24T18:44:02.626Z,15.60
2019-03-24T18:46:34.393Z,13.87
2019-03-24T18:49:06.065Z,17.00
2019-03-24T18:51:37.915Z,17.03
2019-03-24T18:54:09.670Z,16.50
2019-03-24T18:56:41.685Z,16.23
2019-03-24T18:59:13.387Z,15.60
2019-03-24T19:01:45.079Z,15.00
2019-03-24T19:04:16.945Z,16.77
2019-03-24T19:06:48.571Z,16.30
2019-03-24T19:09:20.244Z,16.93
2019-03-24T19:11:52.044Z,17.80
2019-03-24T19:14:23.701Z,17.27
2019-03-24T19:16:55.553Z,17.17
2019-03-24T19:19:27.273Z,17.60
2019-03-24T19:21:58.905Z,19.37
2019-03-24T19:24:30.517Z,20.17
2019-03-24T19:27:02.385Z,23.37
2019-03-24T19:29:34.131Z,22.40
2019-03-24T19:32:05.934Z,24.73
2019-03-24T19:34:37.773Z,26.20
2019-03-24T19:37:09.618Z,26.07
2019-03-24T19:39:41.403Z,28.70
2019-03-24T19:42:13.236Z,27.70
2019-03-24T19:44:44.977Z,28.50
2019-03-24T19:47:16.772Z,29.03
2019-03-24T19:49:48.503Z,26.90
2019-03-24T19:52:20.309Z,29.40
2019-03-24T19:54:52.062Z,30.20
2019-03-24T19:57:23.993Z,30.60
2019-03-24T19:59:55.763Z,30.83
2019-03-24T20:02:27.815Z,32.53
2019-03-24T20:04:59.713Z,31.47
2019-03-24T20:07:31.535Z,33.60
2019-03-24T20:10:03.407Z,29.00
2019-03-24T20:12:35.574Z,31.13
2019-03-24T20:15:07.728Z,30.80
2019-03-24T20:17:40.141Z,32.83
2019-03-24T20:20:12.016Z,33.87
2019-03-24T20:22:43.845Z,32.00
2019-03-24T20:25:15.829Z,30.30
2019-03-24T20:27:47.481Z,30.67
2019-03-24T20:30:20.252Z,29.07
2019-03-24T20:32:51.941Z,30.27
2019-03-24T20:35:23.622Z,30.07
2019-03-24T20:37:55.365Z,31.10
2019-03-24T20:40:27.159Z,28.00
2019-03-24T20:42:58.930Z,27.23
2019-03-24T20:45:30.869Z,29.80
2019-03-24T20:48:02.643Z,31.13
2019-03-24T20:50:35.957Z,34.37
2019-03-24T20:53:17.557Z,34.47
2019-03-24T20:55:41.071Z,35.33
2019-03-24T20:58:12.851Z,35.70
2019-03-24T21:00:44.493Z,32.67
2019-03-24T21:03:16.269Z,33.67
2019-03-24T21:05:48.287Z,32.83
2019-03-24T21:08:20.021Z,31.47
2019-03-24T21:10:51.721Z,31.53
2019-03-24T21:13:23.463Z,29.63
2019-03-24T21:15:55.219Z,33.03
2019-03-24T21:18:27.021Z,33.67
2019-03-24T21:20:58.687Z,33.07
2019-03-24T21:23:30.527Z,33.10
2019-03-24T21:26:03.789Z,30.37
2019-03-24T21:28:35.539Z,32.87
2019-03-24T21:31:07.274Z,31.80
2019-03-24T21:33:38.995Z,33.27
2019-03-24T21:36:10.799Z,33.13
2019-03-24T21:38:42.471Z,33.53
2019-03-24T21:41:14.179Z,33.07
2019-03-24T21:43:45.928Z,32.37
2019-03-24T21:46:17.575Z,31.03
2019-03-24T21:48:49.219Z,34.77
2019-03-24T21:51:21.015Z,34.97
2019-03-24T21:53:52.643Z,33.80
2019-03-24T21:56:24.341Z,33.60
2019-03-24T21:58:56.004Z,34.73
2019-03-24T22:01:27.736Z,32.80
2019-03-24T22:03:59.515Z,34.97
2019-03-24T22:06:31.131Z,32.67
2019-03-24T22:09:02.843Z,34.20
2019-03-24T22:11:35.977Z,33.63
2019-03-24T22:14:07.713Z,34.10
2019-03-24T22:16:39.661Z,32.90
2019-03-24T22:19:11.379Z,33.00
2019-03-24T22:21:43.155Z,33.60
2019-03-24T22:24:14.977Z,34.57
2019-03-24T22:26:46.719Z,34.87
2019-03-24T22:29:18.499Z,32.83
2019-03-24T22:31:50.184Z,34.10
2019-03-24T22:34:21.890Z,33.80
2019-03-24T22:36:53.683Z,33.77
2019-03-24T22:39:25.349Z,35.07
2019-03-24T22:41:57.070Z,32.00
2019-03-24T22:44:28.759Z,32.87
2019-03-24T22:47:00.424Z,34.17
2019-03-24T22:49:32.098Z,35.50
2019-03-24T22:52:07.517Z,34.40
2019-03-24T22:54:37.459Z,34.07
2019-03-24T22:57:09.175Z,31.43
2019-03-24T22:59:40.878Z,34.30
2019-03-24T23:02:12.561Z,32.87
2019-03-24T23:04:44.247Z,33.80
2019-03-24T23:07:16.001Z,32.43
2019-03-24T23:09:51.010Z,35.03
2019-03-24T23:12:22.607Z,32.87
2019-03-24T23:14:54.569Z,34.53
2019-03-24T23:17:26.176Z,33.97
2019-03-24T23:19:57.822Z,34.00
2019-03-24T23:22:29.611Z,33.40
2019-03-24T23:25:01.334Z,35.60
2019-03-24T23:27:33.039Z,32.90
2019-03-24T23:30:05.498Z,33.57
2019-03-24T23:32:37.137Z,33.50
2019-03-24T23:35:10.362Z,32.83
2019-03-24T23:37:42.039Z,33.10
2019-03-24T23:40:13.857Z,32.97
2019-03-24T23:42:45.579Z,31.07
2019-03-24T23:45:17.319Z,33.40
2019-03-24T23:47:49.068Z,32.10
2019-03-24T23:50:21.093Z,32.47
2019-03-24T23:52:53.136Z,32.27
2019-03-24T23:55:25.239Z,32.97
2019-03-24T23:57:56.957Z,31.47
